»·PEaware :: FDX3171 KSLC-KBOI

FDX3171 :: KSLC-KBOI

FLIGHT INFORMATION

Flight Status: Arrived
Operator:
Federal Express
More flights by this operator :: More flights under this callsign
Pilot: David C. (16084)
Aircraft: BOEING 767-300
(B763)
More flights by this aircraft type
Origin: KSLC Salt Lake City Intl
United States
Destination: KBOI Boise Air Terminal/Gowen
United States
More flights between these airports :: More routes between these airports
Route: CGULL1 TWF BROPH SPUUD3
File this flight plan on PilotEdge
Remarks:
Altitude:
(Current/Filed)
30,000ft
Speed:
(Current/Filed)
465kts
Departed: 08-May-20 12:01 PM
Arrived: 08-May-20 12:46 PM
Distance/Time
Traveled:
252nm/0:45
Distance/Time
To Go:
Arrived

Flight Plot

Page will automatically refresh every two minutes.


Map Options




Map Legend


Flown Route
Filed Route
Departure Airport
Arrival Airport
Navaid (VOR, NDB)
Fix

Horizontal Profiles

Position Reports

Time Latitude Longitude Heading Altitude Ground
Speed
08-May-20 11:23 40.805291 -111.984237 174 4239ft 0kts
08-May-20 11:24 40.805291 -111.984237 174 4239ft 0kts
08-May-20 11:25 40.805291 -111.984237 174 4239ft 0kts
08-May-20 11:26 40.805291 -111.984237 174 4239ft 0kts
08-May-20 11:27 40.805291 -111.984237 174 4239ft 0kts
08-May-20 11:28 40.805291 -111.984237 174 4238ft 0kts
08-May-20 11:29 40.805291 -111.984237 174 4238ft 0kts
08-May-20 11:30 40.805291 -111.984237 174 4238ft 0kts
08-May-20 11:31 40.805291 -111.984237 174 4238ft 0kts
08-May-20 11:32 40.805291 -111.984237 174 4238ft 0kts
08-May-20 11:33 40.805291 -111.984237 174 4238ft 0kts
08-May-20 11:34 40.805291 -111.984237 174 4238ft 0kts
08-May-20 11:35 40.805291 -111.984237 174 4238ft 0kts
08-May-20 11:36 40.805291 -111.984237 174 4238ft 0kts
08-May-20 11:37 40.805291 -111.984237 174 4238ft 0kts
08-May-20 11:38 40.805291 -111.984237 174 4238ft 0kts
08-May-20 11:39 40.805291 -111.984237 174 4238ft 0kts
08-May-20 11:40 40.805291 -111.984237 174 4238ft 0kts
08-May-20 11:41 40.805291 -111.984237 174 4238ft 0kts
08-May-20 11:42 40.805291 -111.984237 174 4238ft 0kts
08-May-20 11:43 40.805291 -111.984237 174 4238ft 0kts
08-May-20 11:44 40.805291 -111.984237 174 4238ft 0kts
08-May-20 11:45 40.805291 -111.984237 174 4238ft 0kts
08-May-20 11:46 40.805291 -111.984237 174 4238ft 0kts
08-May-20 11:47 40.805291 -111.984237 174 4238ft 0kts
08-May-20 11:48 40.805291 -111.984237 174 4238ft 0kts
08-May-20 11:49 40.805291 -111.984237 174 4238ft 0kts
08-May-20 11:50 40.805291 -111.984237 174 4238ft 0kts
08-May-20 11:51 40.805291 -111.984237 174 4238ft 0kts
08-May-20 11:52 40.805451 -111.984300 159 4238ft 2kts
08-May-20 11:53 40.805854 -111.984667 129 4238ft 0kts
08-May-20 11:54 40.805854 -111.984666 129 4238ft 0kts
08-May-20 11:55 40.805854 -111.984666 129 4238ft 0kts
08-May-20 11:56 40.806078 -111.982694 85 4238ft 5kts
08-May-20 11:57 40.806110 -111.982181 84 4238ft 0kts
08-May-20 11:58 40.807325 -111.979744 79 4238ft 8kts
08-May-20 11:59 40.807399 -111.979028 82 4238ft 0kts
08-May-20 12:00 40.805138 -111.976662 175 4238ft 59kts
08-May-20 12:01 40.757837 -111.975079 199 5451ft 227kts
08-May-20 12:02 40.754694 -112.047716 306 8058ft 265kts
08-May-20 12:03 40.800021 -112.126216 306 9992ft 281kts
08-May-20 12:04 40.845955 -112.206038 306 9987ft 272kts
08-May-20 12:05 40.891741 -112.285159 311 12067ft 280kts
08-May-20 12:06 40.961119 -112.341238 328 14656ft 315kts
08-May-20 12:07 41.041721 -112.403994 327 17244ft 358kts
08-May-20 12:08 41.129424 -112.475965 324 19773ft 396kts
08-May-20 12:09 41.222638 -112.563546 319 22302ft 423kts
08-May-20 12:10 41.310881 -112.668223 309 23231ft 421kts
08-May-20 12:11 41.389422 -112.782781 309 25453ft 428kts
08-May-20 12:12 41.469154 -112.903850 309 27953ft 441kts
08-May-20 12:13 41.550942 -113.029292 310 29939ft 457kts
08-May-20 12:14 41.634406 -113.157785 310 30211ft 448kts
08-May-20 12:15 41.716132 -113.284186 310 30199ft 450kts
08-May-20 12:16 41.797791 -113.411028 310 30199ft 451kts
08-May-20 12:17 41.879512 -113.538507 310 30198ft 451kts
08-May-20 12:18 41.961283 -113.666619 309 30202ft 452kts
08-May-20 12:19 42.042742 -113.794766 309 30201ft 451kts
08-May-20 12:20 42.124079 -113.923310 309 30204ft 451kts
08-May-20 12:21 42.205167 -114.051699 309 30203ft 451kts
08-May-20 12:22 42.286340 -114.180388 309 30202ft 450kts
08-May-20 12:23 42.367416 -114.309485 309 30201ft 450kts
08-May-20 12:24 42.448081 -114.438496 309 29933ft 445kts
08-May-20 12:25 42.525320 -114.561851 309 28313ft 424kts
08-May-20 12:26 42.600135 -114.681356 309 26422ft 411kts
08-May-20 12:27 42.673164 -114.798472 308 24667ft 401kts
08-May-20 12:28 42.745712 -114.911035 312 22985ft 393kts
08-May-20 12:29 42.820128 -115.017630 311 21310ft 384kts
08-May-20 12:30 42.892555 -115.121931 312 19693ft 376kts
08-May-20 12:31 42.963645 -115.224905 313 17752ft 370kts
08-May-20 12:32 43.032959 -115.325725 314 15649ft 361kts
08-May-20 12:33 43.100579 -115.424406 314 13723ft 349kts
08-May-20 12:34 43.165879 -115.519949 314 11992ft 343kts
08-May-20 12:35 43.226450 -115.608716 314 11516ft 289kts
08-May-20 12:36 43.281769 -115.688681 317 10222ft 288kts
08-May-20 12:37 43.337647 -115.760192 317 9425ft 267kts
08-May-20 12:38 43.393296 -115.825837 328 8541ft 255kts
08-May-20 12:39 43.446261 -115.876691 298 7539ft 217kts
08-May-20 12:40 43.470835 -115.947723 296 6695ft 203kts
08-May-20 12:41 43.493863 -116.014315 296 5826ft 192kts
08-May-20 12:42 43.515991 -116.078614 296 4817ft 168kts
08-May-20 12:43 43.535597 -116.135683 296 3953ft 164kts
08-May-20 12:44 43.555062 -116.192551 295 3080ft 162kts
08-May-20 12:45 43.567506 -116.228808 316 2852ft 12kts
08-May-20 12:46 43.568284 -116.229080 23 2852ft 1kts
08-May-20 12:47 43.567386 -116.225027 115 2857ft 18kts
08-May-20 12:48 43.565926 -116.218740 114 2864ft 10kts
08-May-20 12:50 43.567298 -116.216060 151 2864ft 11kts
08-May-20 12:51 43.566932 -116.216064 200 2865ft 0kts
08-May-20 12:52 43.566932 -116.216064 200 2865ft 0kts

Navigation Log

Ident Type
Flight plan parsing failed, navigation log unavailable